Time;durP1;ratioP1;P1;durP2;ratioP2;P2;SDS_P1;SDS_P2;PMS_P1;PMS_P2;Temp;Humidity;BMP_temperature;BMP_pressure;BME280_temperature;BME280_humidity;BME280_pressure;Samples;Min_cycle;Max_cycle;Signal;HPM_P1;HPM_P2
2022/08/11 00:01:13;;;;;;;;;;;;;;;;;;5071884;28;19999;-64
2022/08/11 00:03:44;;;;;;;;;;;;;;;;;;5071559;28;20270;-64
2022/08/11 00:06:12;;;;;;;;;;;;;;;;;;5071597;28;20019;-64
2022/08/11 00:08:40;;;;;;;;;;;;;;;;;;5071657;28;20396;-63
2022/08/11 00:11:08;;;;;;;;;;;;;;;;;;5074281;28;19925;-66
2022/08/11 00:13:35;;;;;;;;;;;;;;;;;;5074668;28;19990;-64
2022/08/11 00:16:02;;;;;;;;;;;;;;;;;;5075206;28;19924;-64
2022/08/11 00:18:38;;;;;;;;;;;;;;;;;;5074812;28;19924;-65
2022/08/11 00:21:05;;;;;;;;;;;;;;;;;;5074992;28;19931;-64
2022/08/11 00:23:31;;;;;;;;;;;;;;;;;;5061460;28;20377;-64
2022/08/11 00:25:58;;;;;;;;;;;;;;;;;;5074963;28;19924;-65
2022/08/11 00:28:29;;;;;;;;;;;;;;;;;;5074816;28;19939;-65
2022/08/11 00:30:56;;;;;;;;;;;;;;;;;;5074963;28;20397;-66
2022/08/11 00:33:24;;;;;;;;;;;;;;;;;;5074423;28;19924;-64
2022/08/11 00:35:57;;;;;;;;;;;;;;;;;;5074903;28;19936;-64
2022/08/11 00:38:25;;;;;;;;;;;;;;;;;;5075066;28;20428;-64
2022/08/11 00:40:55;;;;;;;;;;;;;;;;;;5060663;28;19977;-64
2022/08/11 00:43:23;;;;;;;;;;;;;;;;;;5074643;28;19924;-65
2022/08/11 00:46:06;;;;;;;;;;;;;;;;;;5074742;28;20502;-66
2022/08/11 00:48:36;;;;;;;;;;;;;;;;;;5073446;28;19924;-65
2022/08/11 00:51:09;;;;;;;;;;;;;;;;;;5074339;28;19928;-65
2022/08/11 00:53:46;;;;;;;;;;;;;;;;;;5074504;28;19928;-65
2022/08/11 00:56:30;;;;;;;;;;;;;;;;;;5074399;28;19931;-65
2022/08/11 00:59:15;;;;;;;;;;;;;;;;;;5073983;28;19985;-63
2022/08/11 01:01:48;;;;;;;;;;;;;;;;;;5074044;28;19928;-64
2022/08/11 01:04:33;;;;;;;;;;;;;;;;;;5074457;28;19925;-64
2022/08/11 01:07:17;;;;;;;;;;;;;;;;;;5063556;28;19932;-64
2022/08/11 01:09:55;;;;;;;;;;;;;;;;;;5073847;28;20334;-63
2022/08/11 01:12:35;;;;;;;;;;;;;;;;;;5073992;28;19939;-64
2022/08/11 01:15:20;;;;;;;;;;;;;;;;;;5058550;28;20354;-64
2022/08/11 01:18:05;;;;;;;;;;;;;;;;;;5073534;28;20370;-64
2022/08/11 01:20:48;;;;;;;;;;;;;;;;;;5042170;28;20003;-64
2022/08/11 01:23:42;;;;;;;;;;;;;;;;;;5073833;28;20396;-64
2022/08/11 01:26:38;;;;;;;;;;;;;;;;;;5037973;28;19928;-63
2022/08/11 01:29:19;;;;;;;;;;;;;;;;;;5011189;28;19925;-64
2022/08/11 01:32:19;;;;;;;;;;;;;;;;;;5062207;28;20062;-64
2022/08/11 01:35:12;;;;;;;;;;;;;;;;;;5063952;28;19951;-64
2022/08/11 01:38:12;;;;;;;;;;;;;;;;;;5026001;28;19924;-63
2022/08/11 01:40:52;;;;;;;;;;;;;;;;;;5003573;28;19932;-64
2022/08/11 01:46:15;;;;;;;;;;;;;;;;;;5051959;28;19935;-65
2022/08/11 01:48:43;;;;;;;;;;;;;;;;;;5073330;28;19932;-63
2022/08/11 01:51:22;;;;;;;;;;;;;;;;;;5073020;28;19924;-63
2022/08/11 01:53:53;;;;;;;;;;;;;;;;;;5073006;28;20461;-64
2022/08/11 01:56:32;;;;;;;;;;;;;;;;;;5073241;28;20007;-64
2022/08/11 01:59:05;;;;;;;;;;;;;;;;;;5071067;28;20019;-65
2022/08/11 02:01:43;;;;;;;;;;;;;;;;;;5063952;28;19933;-64
2022/08/11 02:04:15;;;;;;;;;;;;;;;;;;5073019;28;19931;-64
2022/08/11 02:06:55;;;;;;;;;;;;;;;;;;5072991;28;19934;-62
2022/08/11 02:09:29;;;;;;;;;;;;;;;;;;5072846;28;19935;-63
2022/08/11 02:11:58;;;;;;;;;;;;;;;;;;5072900;28;20416;-63
2022/08/11 02:14:31;;;;;;;;;;;;;;;;;;5072907;28;20007;-64
2022/08/11 02:17:13;;;;;;;;;;;;;;;;;;5072654;28;19924;-66
2022/08/11 02:25:20;;;;;;;;;;;;;;;;;;5073145;28;19931;-64
2022/08/11 02:27:52;;;;;;;;;;;;;;;;;;5072846;28;19957;-64
2022/08/11 02:30:24;;;;;;;;;;;;;;;;;;5072361;28;19925;-64
2022/08/11 02:35:41;;;;;;;;;;;;;;;;;;5072721;28;19977;-64
2022/08/11 02:38:12;;;;;;;;;;;;;;;;;;5072849;28;20377;-65
2022/08/11 02:40:45;;;;;;;;;;;;;;;;;;5072188;28;19938;-64
2022/08/11 02:43:20;;;;;;;;;;;;;;;;;;5072281;28;19928;-65
2022/08/11 02:45:53;;;;;;;;;;;;;;;;;;5072302;28;19931;-63
2022/08/11 02:51:12;;;;;;;;;;;;;;;;;;5072058;28;20013;-66
2022/08/11 02:53:43;;;;;;;;;;;;;;;;;;5072038;28;19932;-64
2022/08/11 02:56:14;;;;;;;;;;;;;;;;;;5072196;28;19932;-65
2022/08/11 02:59:48;;;;;;;;;;;;;;;;;;5072606;28;19924;-65
2022/08/11 03:01:41;;;;;;;;;;;;;;;;;;5071360;28;19924;-63
2022/08/11 03:04:10;;;;;;;;;;;;;;;;;;5072439;28;20297;-63
2022/08/11 03:06:39;;;;;;;;;;;;;;;;;;5071806;28;19928;-64
2022/08/11 03:09:10;;;;;;;;;;;;;;;;;;5070994;28;19932;-65
2022/08/11 03:17:28;;;;;;;;;;;;;;;;;;5071769;28;19931;-64
2022/08/11 03:20:00;;;;;;;;;;;;;;;;;;5071984;28;19931;-64
2022/08/11 03:22:30;;;;;;;;;;;;;;;;;;5071665;28;19932;-64
2022/08/11 03:25:00;;;;;;;;;;;;;;;;;;5072270;28;20336;-64
2022/08/11 03:27:32;;;;;;;;;;;;;;;;;;5071104;28;19998;-64
2022/08/11 03:30:05;;;;;;;;;;;;;;;;;;5071415;28;19925;-64
2022/08/11 03:32:34;;;;;;;;;;;;;;;;;;5071696;28;19924;-64
2022/08/11 03:35:01;;;;;;;;;;;;;;;;;;5071946;28;20385;-63
2022/08/11 03:37:50;;;;;;;;;;;;;;;;;;5071788;28;19931;-64
2022/08/11 03:43:11;;;;;;;;;;;;;;;;;;5071552;28;19930;-64
2022/08/11 03:45:49;;;;;;;;;;;;;;;;;;5075581;28;20413;-64
2022/08/11 03:48:19;;;;;;;;;;;;;;;;;;5075938;28;19932;-64
2022/08/11 03:51:02;;;;;;;;;;;;;;;;;;5074514;28;20336;-64
2022/08/11 03:53:43;;;;;;;;;;;;;;;;;;5075473;28;19925;-65
2022/08/11 03:56:27;;;;;;;;;;;;;;;;;;5058686;28;20438;-63
2022/08/11 03:59:09;;;;;;;;;;;;;;;;;;5075823;28;19932;-62
2022/08/11 04:01:55;;;;;;;;;;;;;;;;;;5072139;28;20489;-64
2022/08/11 04:04:41;;;;;;;;;;;;;;;;;;5075575;28;20325;-64
2022/08/11 04:07:25;;;;;;;;;;;;;;;;;;5075563;28;20317;-63
2022/08/11 04:10:06;;;;;;;;;;;;;;;;;;5061514;28;19970;-63
2022/08/11 04:12:54;;;;;;;;;;;;;;;;;;5072818;28;20001;-64
2022/08/11 04:15:59;;;;;;;;;;;;;;;;;;5075399;28;20282;-64
2022/08/11 04:18:39;;;;;;;;;;;;;;;;;;5074965;28;20007;-64
2022/08/11 04:21:20;;;;;;;;;;;;;;;;;;5074405;28;19925;-63
2022/08/11 04:24:02;;;;;;;;;;;;;;;;;;5075068;28;20420;-63
2022/08/11 04:26:47;;;;;;;;;;;;;;;;;;5074971;28;19933;-63
2022/08/11 04:29:24;;;;;;;;;;;;;;;;;;5066283;28;19929;-64
2022/08/11 04:32:00;;;;;;;;;;;;;;;;;;5074810;28;19970;-64
2022/08/11 04:34:41;;;;;;;;;;;;;;;;;;5094498;22;19932;-84
2022/08/11 04:40:14;;;;;;;;;;;;;;;;;;5083242;28;19931;-85
2022/08/11 04:45:55;;;;;;;;;;;;;;;;;;5081615;28;19923;-84
2022/08/11 05:03:03;;;;;;;;;;;;;;;;;;5098137;28;19970;-84
2022/08/11 05:05:36;;;;;;;;;;;;;;;;;;5084911;28;19951;-83
2022/08/11 05:08:35;;;;;;;;;;;;;;;;;;5099833;28;19967;-84
2022/08/11 05:11:11;;;;;;;;;;;;;;;;;;5085434;28;20023;-84
2022/08/11 05:35:48;;;;;;;;;;;;;;;;;;5079237;28;19935;-83
2022/08/11 05:57:44;;;;;;;;;;;;;;;;;;5080743;28;20515;-84
2022/08/11 06:00:14;;;;;;;;;;;;;;;;;;5077509;28;19924;-83
2022/08/11 06:02:42;;;;;;;;;;;;;;;;;;5077372;28;20339;-84
2022/08/11 06:05:09;;;;;;;;;;;;;;;;;;5079320;28;19924;-85
2022/08/11 06:07:36;;;;;;;;;;;;;;;;;;5097566;28;19971;-83
2022/08/11 06:10:02;;;;;;;;;;;;;;;;;;5097006;28;20022;-84
2022/08/11 06:12:31;;;;;;;;;;;;;;;;;;5063905;28;19924;-84
2022/08/11 06:14:58;;;;;;;;;;;;;;;;;;5076608;28;19982;-84
2022/08/11 06:17:26;;;;;;;;;;;;;;;;;;5075895;28;20371;-83
2022/08/11 06:19:58;;;;;;;;;;;;;;;;;;5077742;28;19979;-84
2022/08/11 06:22:25;;;;;;;;;;;;;;;;;;5076545;28;19979;-83
2022/08/11 06:24:56;;;;;;;;;;;;;;;;;;5077176;28;19924;-83
2022/08/11 06:27:25;;;;;;;;;;;;;;;;;;5077297;28;19932;-84
2022/08/11 06:29:53;;;;;;;;;;;;;;;;;;5089757;28;19924;-84
2022/08/11 06:32:19;;;;;;;;;;;;;;;;;;5089822;28;20509;-84
2022/08/11 06:34:58;;;;;;;;;;;;;;;;;;5081598;28;20298;-85
2022/08/11 06:37:29;;;;;;;;;;;;;;;;;;5098961;28;19930;-83
2022/08/11 06:40:03;;;;;;;;;;;;;;;;;;5082594;28;19939;-84
2022/08/11 06:42:41;;;;;;;;;;;;;;;;;;5079233;28;19925;-84
2022/08/11 06:45:13;;;;;;;;;;;;;;;;;;5094919;28;19928;-84
2022/08/11 06:47:44;;;;;;;;;;;;;;;;;;5081150;28;19924;-84
2022/08/11 06:53:01;;;;;;;;;;;;;;;;;;5077216;28;19946;-85
2022/08/11 07:01:00;;;;;;;;;;;;;;;;;;5100208;28;19931;-84
2022/08/11 07:03:28;;;;;;;;;;;;;;;;;;5081467;28;20019;-83
2022/08/11 07:06:01;;;;;;;;;;;;;;;;;;5086297;28;19935;-81
2022/08/11 07:17:16;;;;;;;;;;;;;;;;;;5085261;28;19939;-83
2022/08/11 07:31:08;;;;;;;;;;;;;;;;;;5069635;28;19931;-83
2022/08/11 07:33:40;;;;;;;;;;;;;;;;;;5088021;28;20003;-83
2022/08/11 07:36:07;;;;;;;;;;;;;;;;;;5069498;28;20294;-83
2022/08/11 07:38:43;;;;;;;;;;;;;;;;;;5098447;28;19950;-81
2022/08/11 07:41:10;;;;;;;;;;;;;;;;;;5080735;28;19925;-83
2022/08/11 07:43:37;;;;;;;;;;;;;;;;;;5079045;28;19954;-85
2022/08/11 07:54:18;;;;;;;;;;;;;;;;;;5062407;28;19946;-84
2022/08/11 07:56:46;;;;;;;;;;;;;;;;;;5064276;28;19924;-83
2022/08/11 08:18:25;;;;;;;;;;;;;;;;;;5077683;28;20057;-84
2022/08/11 08:20:53;;;;;;;;;;;;;;;;;;5079305;28;19924;-85
2022/08/11 08:23:31;;;;;;;;;;;;;;;;;;5076827;28;19948;-84
2022/08/11 08:26:00;;;;;;;;;;;;;;;;;;5059984;28;19928;-83
2022/08/11 08:28:28;;;;;;;;;;;;;;;;;;5083469;28;20383;-84
2022/08/11 08:30:55;;;;;;;;;;;;;;;;;;5084960;28;19924;-84
2022/08/11 08:33:22;;;;;;;;;;;;;;;;;;5081946;28;19955;-83
2022/08/11 08:35:50;;;;;;;;;;;;;;;;;;5071995;28;19924;-82
2022/08/11 08:38:18;;;;;;;;;;;;;;;;;;5068259;28;19925;-84
2022/08/11 08:40:45;;;;;;;;;;;;;;;;;;5083258;28;19926;-82
2022/08/11 08:43:16;;;;;;;;;;;;;;;;;;5083294;28;20382;-85
2022/08/11 08:45:43;;;;;;;;;;;;;;;;;;5084067;28;20417;-83
2022/08/11 08:48:12;;;;;;;;;;;;;;;;;;5082733;28;19924;-84
2022/08/11 08:53:30;;;;;;;;;;;;;;;;;;5086735;28;20034;-83
2022/08/11 08:55:58;;;;;;;;;;;;;;;;;;5085593;28;19925;-83
2022/08/11 08:58:26;;;;;;;;;;;;;;;;;;5084556;28;19947;-85
2022/08/11 09:00:54;;;;;;;;;;;;;;;;;;5086262;28;20375;-84
2022/08/11 09:03:20;;;;;;;;;;;;;;;;;;5086570;28;19930;-83
2022/08/11 09:05:48;;;;;;;;;;;;;;;;;;5085898;28;19963;-84
2022/08/11 09:08:17;;;;;;;;;;;;;;;;;;5085728;28;20272;-82
2022/08/11 09:10:45;;;;;;;;;;;;;;;;;;5083614;28;20374;-84
2022/08/11 09:13:12;;;;;;;;;;;;;;;;;;5085106;28;19978;-82
2022/08/11 09:15:40;;;;;;;;;;;;;;;;;;5085364;28;19950;-83
2022/08/11 09:18:09;;;;;;;;;;;;;;;;;;5084816;28;19932;-83
2022/08/11 09:20:37;;;;;;;;;;;;;;;;;;5085149;28;19947;-85
2022/08/11 09:28:35;;;;;;;;;;;;;;;;;;5071310;28;19988;-82
2022/08/11 09:31:03;;;;;;;;;;;;;;;;;;5065813;28;19980;-87
2022/08/11 09:33:31;;;;;;;;;;;;;;;;;;5061328;28;19924;-86
2022/08/11 09:35:57;;;;;;;;;;;;;;;;;;5068548;28;19919;-82
2022/08/11 09:41:13;;;;;;;;;;;;;;;;;;5068378;28;19925;-84
2022/08/11 09:46:27;;;;;;;;;;;;;;;;;;5078254;28;19931;-84
2022/08/11 09:48:55;;;;;;;;;;;;;;;;;;5080068;28;19931;-87
2022/08/11 09:51:22;;;;;;;;;;;;;;;;;;5079369;28;20019;-84
2022/08/11 09:53:49;;;;;;;;;;;;;;;;;;5090320;28;19991;-85
2022/08/11 09:59:01;;;;;;;;;;;;;;;;;;5075229;28;19986;-84
2022/08/11 10:01:30;;;;;;;;;;;;;;;;;;5082797;28;19966;-84
2022/08/11 10:04:00;;;;;;;;;;;;;;;;;;5089215;28;19931;-84
2022/08/11 10:09:13;;;;;;;;;;;;;;;;;;5074660;28;19936;-81
2022/08/11 10:11:40;;;;;;;;;;;;;;;;;;5078551;28;19925;-81
2022/08/11 10:16:54;;;;;;;;;;;;;;;;;;5085012;28;19990;-80
2022/08/11 10:19:20;;;;;;;;;;;;;;;;;;5083971;28;19924;-80
2022/08/11 10:26:49;;;;;;;;;;;;;;;;;;5083916;28;19986;-82
2022/08/11 10:27:22;;;;;;;;;;;;;;;;;;5101424;28;19931;-82
2022/08/11 10:35:23;;;;;;;;;;;;;;;;;;5075591;28;19946;-80
2022/08/11 10:37:50;;;;;;;;;;;;;;;;;;5084511;28;19935;-80
2022/08/11 10:40:18;;;;;;;;;;;;;;;;;;5117641;22;20395;-66
2022/08/11 10:43:02;;;;;;;;;;;;;;;;;;5055462;28;19933;-66
2022/08/11 10:48:15;;;;;;;;;;;;;;;;;;5047650;28;19979;-65
2022/08/11 10:58:58;;;;;;;;;;;;;;;;;;5056046;28;19978;-64
2022/08/11 11:01:25;;;;;;;;;;;;;;;;;;5052175;28;19971;-64
2022/08/11 11:03:57;;;;;;;;;;;;;;;;;;5050237;28;19932;-64
2022/08/11 11:06:26;;;;;;;;;;;;;;;;;;5047070;28;19979;-65
2022/08/11 11:08:56;;;;;;;;;;;;;;;;;;5053246;28;20309;-65
2022/08/11 11:20:02;;;;;;;;;;;;;;;;;;5051479;28;19932;-64
2022/08/11 11:22:38;;;;;;;;;;;;;;;;;;5051597;28;20405;-65
2022/08/11 11:25:09;;;;;;;;;;;;;;;;;;5045918;28;19983;-64
2022/08/11 11:27:38;;;;;;;;;;;;;;;;;;5046914;28;19975;-65
2022/08/11 11:30:06;;;;;;;;;;;;;;;;;;5052015;28;20003;-64
2022/08/11 11:32:38;;;;;;;;;;;;;;;;;;5052540;28;19944;-65
2022/08/11 11:35:19;;;;;;;;;;;;;;;;;;5048474;28;19929;-64
2022/08/11 11:37:46;;;;;;;;;;;;;;;;;;5037134;28;20011;-63
2022/08/11 11:40:14;;;;;;;;;;;;;;;;;;5043609;28;20043;-63
2022/08/11 11:42:42;;;;;;;;;;;;;;;;;;5049916;28;19928;-64
2022/08/11 11:45:09;;;;;;;;;;;;;;;;;;5049538;28;20183;-65
2022/08/11 11:47:36;;;;;;;;;;;;;;;;;;5046292;28;19980;-65
2022/08/11 11:50:07;;;;;;;;;;;;;;;;;;5047840;28;19936;-65
2022/08/11 11:52:35;;;;;;;;;;;;;;;;;;5039032;28;19932;-64
2022/08/11 11:55:02;;;;;;;;;;;;;;;;;;5033068;28;19925;-64
2022/08/11 12:02:59;;;;;;;;;;;;;;;;;;5049502;28;19931;-63
2022/08/11 12:05:26;;;;;;;;;;;;;;;;;;5047604;28;19974;-66
2022/08/11 12:08:14;;;;;;;;;;;;;;;;;;5053457;28;19925;-64
2022/08/11 12:10:43;;;;;;;;;;;;;;;;;;5053292;28;20016;-64
2022/08/11 12:15:54;;;;;;;;;;;;;;;;;;5044550;28;19979;-65
2022/08/11 12:18:21;;;;;;;;;;;;;;;;;;5045540;28;19929;-67
2022/08/11 12:20:47;;;;;;;;;;;;;;;;;;5054699;28;19950;-65
2022/08/11 12:28:45;;;;;;;;;;;;;;;;;;5054284;28;19985;-65
2022/08/11 12:31:11;;;;;;;;;;;;;;;;;;5069054;28;19932;-65
2022/08/11 12:33:39;;;;;;;;;;;;;;;;;;5053798;28;19966;-65
2022/08/11 12:36:08;;;;;;;;;;;;;;;;;;5053037;28;19924;-65
2022/08/11 12:38:36;;;;;;;;;;;;;;;;;;5044782;28;19971;-64
2022/08/11 12:46:33;;;;;;;;;;;;;;;;;;5052970;28;19940;-64
2022/08/11 12:51:57;;;;;;;;;;;;;;;;;;5052557;28;20036;-64
2022/08/11 12:54:26;;;;;;;;;;;;;;;;;;5052895;28;19925;-65
2022/08/11 13:05:12;;;;;;;;;;;;;;;;;;5053608;28;19975;-68
2022/08/11 13:07:42;;;;;;;;;;;;;;;;;;5052208;28;19928;-67
2022/08/11 13:10:11;;;;;;;;;;;;;;;;;;5039832;28;19932;-66
2022/08/11 13:12:46;;;;;;;;;;;;;;;;;;5041604;28;19929;-64
2022/08/11 13:15:15;;;;;;;;;;;;;;;;;;5045707;28;19932;-64
2022/08/11 13:17:42;;;;;;;;;;;;;;;;;;5049051;28;19932;-65
2022/08/11 13:20:11;;;;;;;;;;;;;;;;;;5044463;28;19925;-65
2022/08/11 13:22:38;;;;;;;;;;;;;;;;;;5045370;28;20466;-65
2022/08/11 13:25:05;;;;;;;;;;;;;;;;;;5050834;28;19929;-65
2022/08/11 13:27:34;;;;;;;;;;;;;;;;;;5042757;28;19929;-64
2022/08/11 13:32:45;;;;;;;;;;;;;;;;;;5033818;28;19939;-65
2022/08/11 13:35:14;;;;;;;;;;;;;;;;;;5050947;28;20389;-65
2022/08/11 13:37:41;;;;;;;;;;;;;;;;;;5049595;28;20263;-69
2022/08/11 13:40:08;;;;;;;;;;;;;;;;;;5051111;28;19950;-64
2022/08/11 13:42:38;;;;;;;;;;;;;;;;;;5049676;28;19925;-66
2022/08/11 13:45:06;;;;;;;;;;;;;;;;;;5052130;28;19925;-66
2022/08/11 13:47:34;;;;;;;;;;;;;;;;;;5059872;28;19931;-62
2022/08/11 13:50:01;;;;;;;;;;;;;;;;;;5059876;28;19978;-66
2022/08/11 13:52:28;;;;;;;;;;;;;;;;;;5049751;28;19932;-69
2022/08/11 13:54:55;;;;;;;;;;;;;;;;;;5056395;28;19929;-66
2022/08/11 13:57:22;;;;;;;;;;;;;;;;;;5055427;28;20002;-65
2022/08/11 13:59:54;;;;;;;;;;;;;;;;;;5053967;28;19936;-65
2022/08/11 14:02:23;;;;;;;;;;;;;;;;;;5051104;28;20531;-65
2022/08/11 14:04:52;;;;;;;;;;;;;;;;;;5051382;28;19968;-66
2022/08/11 14:07:22;;;;;;;;;;;;;;;;;;5051141;28;20266;-66
2022/08/11 14:09:48;;;;;;;;;;;;;;;;;;5051293;28;19972;-65
2022/08/11 14:15:06;;;;;;;;;;;;;;;;;;5061481;28;19940;-66
2022/08/11 14:17:34;;;;;;;;;;;;;;;;;;5051158;28;19929;-65
2022/08/11 14:20:03;;;;;;;;;;;;;;;;;;5050376;28;20024;-65
2022/08/11 14:22:29;;;;;;;;;;;;;;;;;;5054739;28;20352;-64
2022/08/11 14:24:55;;;;;;;;;;;;;;;;;;5050283;28;19932;-65
2022/08/11 14:27:25;;;;;;;;;;;;;;;;;;5051301;28;19983;-66
2022/08/11 14:29:53;;;;;;;;;;;;;;;;;;5050078;28;19937;-66
2022/08/11 14:32:21;;;;;;;;;;;;;;;;;;5051851;28;20382;-65
2022/08/11 14:34:49;;;;;;;;;;;;;;;;;;5042347;28;19968;-66
2022/08/11 14:37:19;;;;;;;;;;;;;;;;;;5044207;28;19977;-67
2022/08/11 14:39:46;;;;;;;;;;;;;;;;;;5051744;28;20405;-64
2022/08/11 14:48:00;;;;;;;;;;;;;;;;;;5049305;28;20023;-65
2022/08/11 14:50:27;;;;;;;;;;;;;;;;;;5050939;28;20313;-65
2022/08/11 14:52:55;;;;;;;;;;;;;;;;;;5052876;28;19925;-65
2022/08/11 14:58:08;;;;;;;;;;;;;;;;;;5043500;28;19944;-65
2022/08/11 15:00:35;;;;;;;;;;;;;;;;;;5050034;28;19925;-65
2022/08/11 15:03:11;;;;;;;;;;;;;;;;;;5054123;28;19929;-66
2022/08/11 15:05:39;;;;;;;;;;;;;;;;;;5048098;28;19924;-64
2022/08/11 15:08:06;;;;;;;;;;;;;;;;;;5049923;28;20005;-66
2022/08/11 15:10:33;;;;;;;;;;;;;;;;;;5049897;28;20007;-66
2022/08/11 15:13:00;;;;;;;;;;;;;;;;;;5050191;28;20373;-64
2022/08/11 15:18:14;;;;;;;;;;;;;;;;;;5050030;28;19932;-66
2022/08/11 15:26:11;;;;;;;;;;;;;;;;;;5050422;28;20280;-64
2022/08/11 15:45:46;;;;;;;;;;;;;;;;;;5050875;28;19946;-66
2022/08/11 15:48:07;;;;;;;;;;;;;;;;;;5054383;28;20504;-65
2022/08/11 15:50:39;;;;;;;;;;;;;;;;;;5054037;28;19976;-66
2022/08/11 15:53:08;;;;;;;;;;;;;;;;;;5054159;28;19925;-65
2022/08/11 15:55:35;;;;;;;;;;;;;;;;;;5054086;28;19998;-65
2022/08/11 16:06:18;;;;;;;;;;;;;;;;;;5053554;28;19932;-66
2022/08/11 16:08:45;;;;;;;;;;;;;;;;;;5053770;28;19928;-65
2022/08/11 16:11:13;;;;;;;;;;;;;;;;;;5053401;28;19929;-66
2022/08/11 16:16:25;;;;;;;;;;;;;;;;;;5053826;28;20518;-66
2022/08/11 16:18:55;;;;;;;;;;;;;;;;;;5053547;28;19925;-65
2022/08/11 16:21:24;;;;;;;;;;;;;;;;;;5053241;28;19924;-66
2022/08/11 16:23:52;;;;;;;;;;;;;;;;;;5053890;28;19974;-65
2022/08/11 16:26:21;;;;;;;;;;;;;;;;;;5053395;28;19995;-66
2022/08/11 16:28:49;;;;;;;;;;;;;;;;;;5053851;28;20024;-66
2022/08/11 16:31:16;;;;;;;;;;;;;;;;;;5052918;28;19978;-67
2022/08/11 16:33:43;;;;;;;;;;;;;;;;;;5053250;28;19951;-66
2022/08/11 16:38:56;;;;;;;;;;;;;;;;;;5053323;28;19931;-65
2022/08/11 16:47:00;;;;;;;;;;;;;;;;;;5053093;28;20305;-64
2022/08/11 16:49:29;;;;;;;;;;;;;;;;;;5053175;28;20365;-65
2022/08/11 16:51:55;;;;;;;;;;;;;;;;;;5051960;28;19957;-65
2022/08/11 16:54:23;;;;;;;;;;;;;;;;;;5053113;28;20386;-64
2022/08/11 16:56:51;;;;;;;;;;;;;;;;;;5053303;28;20333;-64
2022/08/11 16:59:18;;;;;;;;;;;;;;;;;;5053109;28;19925;-64
2022/08/11 17:01:47;;;;;;;;;;;;;;;;;;5053075;28;19925;-64
2022/08/11 17:18:03;;;;;;;;;;;;;;;;;;5053067;28;19932;-64
2022/08/11 17:20:30;;;;;;;;;;;;;;;;;;5052737;28;19929;-64
2022/08/11 17:25:44;;;;;;;;;;;;;;;;;;5052698;28;19939;-66
2022/08/11 17:28:11;;;;;;;;;;;;;;;;;;5052467;28;19931;-64
2022/08/11 17:36:08;;;;;;;;;;;;;;;;;;5045457;28;19979;-64
2022/08/11 17:38:35;;;;;;;;;;;;;;;;;;5043373;28;20520;-65
2022/08/11 17:49:20;;;;;;;;;;;;;;;;;;5038991;28;20389;-66
2022/08/11 18:00:06;;;;;;;;;;;;;;;;;;5054926;28;19935;-66
2022/08/11 18:05:19;;;;;;;;;;;;;;;;;;5050771;28;20147;-65
